Time;durP1;ratioP1;P1;durP2;ratioP2;P2;SDS_P1;SDS_P2;PMS_P1;PMS_P2;Temp;Humidity;BMP_temperature;BMP_pressure;BME280_temperature;BME280_humidity;BME280_pressure;Samples;Min_cycle;Max_cycle;Signal;HPM_P1;HPM_P2
2021/04/13 00:02:24;;;;;;;7.53;5.30;;;3.50;73.10;;;;;;5047982;28;20471;-47
2021/04/13 00:05:00;;;;;;;6.33;4.90;;;3.50;73.20;;;;;;5046392;28;20489;-47
2021/04/13 00:07:29;;;;;;;8.23;5.10;;;3.40;73.10;;;;;;5048290;28;20470;-47
2021/04/13 00:10:00;;;;;;;6.83;6.13;;;3.40;73.20;;;;;;5041475;28;20458;-47
2021/04/13 00:12:31;;;;;;;9.00;5.50;;;3.40;73.30;;;;;;5048566;28;20462;-47
2021/04/13 00:15:03;;;;;;;6.10;5.50;;;3.30;73.60;;;;;;5045434;28;20474;-47
2021/04/13 00:17:32;;;;;;;6.00;4.87;;;3.30;73.80;;;;;;5046930;28;20467;-48
2021/04/13 00:20:10;;;;;;;7.07;6.37;;;3.30;74.00;;;;;;5048440;28;20451;-47
2021/04/13 00:22:39;;;;;;;7.37;6.60;;;3.30;74.10;;;;;;5048866;28;20462;-47
2021/04/13 00:25:07;;;;;;;9.63;7.10;;;3.30;74.30;;;;;;5048175;28;20486;-48
2021/04/13 00:27:33;;;;;;;9.83;6.50;;;3.30;74.50;;;;;;5043717;28;20466;-48
2021/04/13 00:30:12;;;;;;;9.70;6.60;;;3.30;74.70;;;;;;5048754;28;20459;-48
2021/04/13 00:33:04;;;;;;;7.87;7.00;;;3.40;74.80;;;;;;5047583;28;20480;-47
2021/04/13 00:36:06;;;;;;;6.57;5.80;;;3.40;74.80;;;;;;5045139;28;20458;-47
2021/04/13 00:38:26;;;;;;;7.53;6.73;;;3.40;74.80;;;;;;5048121;28;20462;-47
2021/04/13 00:40:53;;;;;;;7.13;6.03;;;3.40;74.80;;;;;;5046997;28;20550;-47
2021/04/13 00:43:24;;;;;;;9.30;7.50;;;3.30;74.90;;;;;;5045926;28;20489;-47
2021/04/13 00:45:51;;;;;;;12.00;7.47;;;3.30;74.90;;;;;;5043975;28;20477;-47
2021/04/13 00:48:26;;;;;;;8.70;7.33;;;3.40;75.10;;;;;;5044993;28;20748;-47
2021/04/13 00:51:01;;;;;;;7.23;5.97;;;3.40;75.10;;;;;;5044208;28;20458;-47
2021/04/13 00:53:30;;;;;;;8.60;7.10;;;3.40;75.10;;;;;;5047492;28;20462;-47
2021/04/13 00:56:02;;;;;;;9.10;6.53;;;3.40;75.10;;;;;;5049037;28;20963;-47
2021/04/13 00:58:40;;;;;;;10.30;6.80;;;3.40;75.10;;;;;;5046382;28;20458;-47
2021/04/13 01:01:20;;;;;;;9.67;7.20;;;3.40;75.00;;;;;;5042626;28;20489;-47
2021/04/13 01:04:02;;;;;;;9.63;6.73;;;3.40;75.00;;;;;;5047966;28;21081;-47
2021/04/13 01:06:33;;;;;;;10.23;7.20;;;3.40;74.90;;;;;;5046426;28;20447;-47
2021/04/13 01:09:26;;;;;;;12.13;7.07;;;3.40;74.90;;;;;;5043712;28;20465;-47
2021/04/13 01:11:59;;;;;;;7.50;6.70;;;3.40;74.90;;;;;;5044787;28;20462;-47
2021/04/13 01:14:28;;;;;;;14.13;10.07;;;3.40;74.80;;;;;;5043051;28;20977;-47
2021/04/13 01:17:02;;;;;;;9.10;7.10;;;3.40;74.80;;;;;;5045548;28;20506;-47
2021/04/13 01:19:55;;;;;;;13.83;7.40;;;3.40;74.70;;;;;;5045962;28;20963;-47
2021/04/13 01:22:36;;;;;;;9.23;7.60;;;3.40;74.70;;;;;;5045355;28;20538;-47
2021/04/13 01:25:22;;;;;;;10.63;7.43;;;3.50;74.60;;;;;;5044953;28;20473;-47
2021/04/13 01:27:58;;;;;;;9.80;7.43;;;3.50;74.50;;;;;;5049310;28;20853;-47
2021/04/13 01:30:47;;;;;;;10.10;7.87;;;3.50;74.60;;;;;;5046945;28;20465;-47
2021/04/13 01:33:22;;;;;;;11.70;8.40;;;3.50;74.50;;;;;;5046879;28;20460;-47
2021/04/13 01:35:54;;;;;;;12.37;7.83;;;3.50;74.50;;;;;;5047817;28;20473;-47
2021/04/13 01:38:31;;;;;;;10.50;8.10;;;3.50;74.30;;;;;;5048374;28;20469;-47
2021/04/13 01:43:42;;;;;;;11.43;8.10;;;3.50;73.90;;;;;;5046931;28;20514;-47
2021/04/13 01:46:10;;;;;;;13.57;9.43;;;3.50;73.70;;;;;;5045753;28;20450;-47
2021/04/13 01:48:38;;;;;;;11.57;8.83;;;3.50;73.60;;;;;;5045953;28;20475;-47
2021/04/13 01:51:07;;;;;;;16.83;9.60;;;3.50;73.60;;;;;;5049931;28;20462;-47
2021/04/13 01:53:40;;;;;;;11.70;8.50;;;3.60;73.20;;;;;;5043807;28;20462;-47
2021/04/13 01:56:12;;;;;;;14.67;9.00;;;3.50;73.20;;;;;;5046010;28;20481;-47
2021/04/13 01:58:56;;;;;;;13.03;9.10;;;3.50;73.10;;;;;;5049005;28;20811;-47
2021/04/13 02:01:52;;;;;;;15.27;9.90;;;3.50;73.10;;;;;;5045126;28;20816;-47
2021/04/13 02:04:28;;;;;;;15.17;9.80;;;3.50;72.90;;;;;;5046277;28;21018;-47
2021/04/13 02:10:21;;;;;;;15.93;10.57;;;3.40;72.50;;;;;;5054563;28;20451;-47
2021/04/13 02:12:52;;;;;;;14.93;10.57;;;3.40;72.40;;;;;;5048266;28;20829;-47
2021/04/13 02:15:28;;;;;;;12.93;8.30;;;3.30;72.20;;;;;;5047388;28;20854;-47
2021/04/13 02:17:59;;;;;;;12.60;9.13;;;3.30;72.30;;;;;;5045431;28;20458;-47
2021/04/13 02:20:31;;;;;;;13.60;10.17;;;3.20;72.40;;;;;;5047203;28;20466;-47
2021/04/13 02:22:59;;;;;;;13.93;9.90;;;3.20;72.50;;;;;;5046608;28;20462;-47
2021/04/13 02:25:30;;;;;;;17.60;9.70;;;3.20;72.60;;;;;;5044877;28;20497;-47
2021/04/13 02:27:58;;;;;;;14.83;10.40;;;3.10;72.70;;;;;;5045880;28;20453;-49
2021/04/13 02:30:32;;;;;;;15.60;9.83;;;3.10;72.90;;;;;;5060201;28;20526;-49
2021/04/13 02:33:05;;;;;;;13.77;9.87;;;3.10;73.00;;;;;;5044636;28;20457;-49
2021/04/13 02:35:36;;;;;;;16.13;10.20;;;3.10;73.10;;;;;;5047640;28;20453;-49
2021/04/13 02:38:07;;;;;;;16.13;10.50;;;3.10;73.20;;;;;;5044220;28;20653;-49
2021/04/13 02:40:43;;;;;;;13.87;9.70;;;3.00;73.30;;;;;;5047395;28;20465;-49
2021/04/13 02:43:21;;;;;;;13.47;9.23;;;3.00;73.40;;;;;;5045080;28;20832;-47
2021/04/13 02:45:51;;;;;;;18.77;10.77;;;3.00;73.50;;;;;;5043430;28;20458;-47
2021/04/13 02:48:29;;;;;;;14.17;9.67;;;3.00;73.60;;;;;;5052259;28;20459;-48
2021/04/13 02:51:10;;;;;;;17.83;10.07;;;3.10;73.70;;;;;;5045959;28;20458;-47
2021/04/13 02:53:43;;;;;;;15.50;11.10;;;3.00;73.70;;;;;;5045445;28;20469;-47
2021/04/13 02:56:18;;;;;;;12.33;9.90;;;3.10;74.00;;;;;;5046981;28;20470;-47
2021/04/13 02:59:14;;;;;;;13.10;9.60;;;3.10;73.70;;;;;;5044679;28;20465;-47
2021/04/13 03:01:48;;;;;;;16.00;10.03;;;3.20;73.30;;;;;;5045767;28;20462;-47
2021/04/13 03:04:16;;;;;;;19.23;11.80;;;3.10;73.20;;;;;;5046673;28;20485;-47
2021/04/13 03:06:47;;;;;;;12.80;10.10;;;3.10;73.30;;;;;;5046998;28;20461;-47
2021/04/13 03:09:17;;;;;;;19.13;12.57;;;3.10;73.50;;;;;;5048922;28;20553;-47
2021/04/13 03:12:06;;;;;;;19.03;11.97;;;3.00;73.50;;;;;;5046052;28;20509;-47
2021/04/13 03:14:39;;;;;;;17.47;11.40;;;3.00;73.70;;;;;;5047873;28;20854;-47
2021/04/13 03:17:14;;;;;;;20.33;11.93;;;2.90;73.80;;;;;;5035399;28;21097;-47
2021/04/13 03:19:43;;;;;;;18.80;10.83;;;2.90;73.80;;;;;;5049126;28;20462;-47
2021/04/13 03:22:10;;;;;;;16.70;10.27;;;2.90;73.90;;;;;;5049919;28;20798;-47
2021/04/13 03:24:40;;;;;;;17.83;12.23;;;2.90;73.90;;;;;;5049039;28;20490;-48
2021/04/13 03:27:15;;;;;;;15.50;11.10;;;2.90;73.90;;;;;;5049862;28;21888;-47
2021/04/13 03:29:55;;;;;;;14.50;11.27;;;2.90;73.90;;;;;;5046970;28;20911;-47
2021/04/13 03:32:26;;;;;;;15.20;11.03;;;2.90;74.00;;;;;;5048922;28;20882;-47
2021/04/13 03:34:53;;;;;;;15.77;11.40;;;2.90;74.00;;;;;;5049086;28;21114;-47
2021/04/13 03:37:21;;;;;;;12.30;9.27;;;2.80;74.20;;;;;;5047660;28;20533;-47
2021/04/13 03:39:48;;;;;;;17.20;11.23;;;2.80;74.20;;;;;;5049859;28;20458;-47
2021/04/13 03:42:26;;;;;;;18.87;12.30;;;2.80;74.30;;;;;;5046500;28;20459;-47
2021/04/13 03:44:55;;;;;;;19.03;11.47;;;2.70;74.40;;;;;;5050273;28;20490;-47
2021/04/13 03:47:30;;;;;;;15.07;10.47;;;2.70;74.40;;;;;;5048233;28;20820;-47
2021/04/13 03:49:58;;;;;;;15.27;10.00;;;2.70;74.40;;;;;;5045773;28;20450;-47
2021/04/13 03:52:30;;;;;;;18.07;13.27;;;2.70;74.60;;;;;;5051530;28;20466;-47
2021/04/13 03:54:57;;;;;;;23.77;11.90;;;2.70;74.60;;;;;;5045613;28;20467;-47
2021/04/13 03:57:42;;;;;;;23.87;12.17;;;2.60;74.60;;;;;;5051597;28;20473;-47
2021/04/13 04:00:13;;;;;;;18.43;10.97;;;2.70;74.70;;;;;;5063724;28;20450;-47
2021/04/13 04:02:39;;;;;;;18.17;10.90;;;2.60;74.70;;;;;;5050560;28;20455;-47
2021/04/13 04:05:14;;;;;;;18.27;12.40;;;2.70;74.80;;;;;;5048515;28;21014;-47
2021/04/13 04:10:34;;;;;;;20.90;11.63;;;2.60;74.70;;;;;;5050455;28;21140;-47
2021/04/13 04:13:07;;;;;;;19.63;12.30;;;2.60;74.80;;;;;;5044946;28;20455;-47
2021/04/13 04:15:42;;;;;;;20.43;12.50;;;2.50;74.90;;;;;;5046561;28;20486;-47
2021/04/13 04:18:28;;;;;;;18.53;12.63;;;2.60;74.90;;;;;;5048230;28;20472;-47
2021/04/13 04:20:55;;;;;;;20.70;13.40;;;2.60;74.90;;;;;;5049297;28;20462;-47
2021/04/13 04:23:32;;;;;;;20.30;12.83;;;2.60;74.80;;;;;;5047457;28;20464;-48
2021/04/13 04:26:05;;;;;;;20.80;12.80;;;2.50;74.80;;;;;;5047769;28;20545;-47
2021/04/13 04:28:41;;;;;;;19.73;13.70;;;2.50;74.90;;;;;;5046973;28;20454;-47
2021/04/13 04:31:35;;;;;;;22.37;15.37;;;2.50;74.90;;;;;;5048212;28;21018;-47
2021/04/13 04:34:14;;;;;;;26.03;15.00;;;2.40;74.90;;;;;;5048420;28;20455;-47
2021/04/13 04:37:02;;;;;;;22.30;15.13;;;2.40;74.90;;;;;;5046541;28;20482;-47
2021/04/13 04:39:33;;;;;;;23.30;15.57;;;2.40;74.90;;;;;;5045143;28;20471;-47
2021/04/13 04:42:26;;;;;;;22.43;15.93;;;2.40;74.90;;;;;;5047690;28;20553;-47
2021/04/13 04:45:11;;;;;;;23.33;14.03;;;2.40;74.90;;;;;;5047331;28;20494;-47
2021/04/13 04:47:38;;;;;;;24.17;13.93;;;2.30;74.70;;;;;;5045272;28;20955;-47
2021/04/13 04:50:11;;;;;;;22.87;14.30;;;2.30;74.90;;;;;;5048719;28;20466;-47
2021/04/13 04:52:38;;;;;;;25.83;14.33;;;2.30;75.00;;;;;;5048220;28;20451;-47
2021/04/13 04:55:05;;;;;;;26.07;15.20;;;2.20;75.10;;;;;;5043323;28;20550;-47
2021/04/13 04:57:32;;;;;;;26.20;15.07;;;2.20;75.20;;;;;;5046854;28;20503;-47
2021/04/13 04:59:59;;;;;;;25.33;16.17;;;2.20;75.30;;;;;;5056617;28;20477;-47
2021/04/13 05:02:25;;;;;;;24.57;17.73;;;2.20;75.40;;;;;;5046202;28;20482;-47
2021/04/13 05:04:52;;;;;;;30.80;19.47;;;2.20;75.50;;;;;;5048867;28;20492;-47
2021/04/13 05:07:19;;;;;;;31.33;19.27;;;2.20;75.60;;;;;;5046050;28;20466;-47
2021/04/13 05:09:46;;;;;;;32.70;20.33;;;2.20;75.60;;;;;;5049269;28;20937;-47
2021/04/13 05:12:12;;;;;;;31.23;19.47;;;2.20;75.70;;;;;;5046733;28;20537;-47
2021/04/13 05:14:38;;;;;;;38.47;20.53;;;2.20;75.70;;;;;;5045761;28;20454;-47
2021/04/13 05:17:05;;;;;;;30.70;17.97;;;2.30;75.60;;;;;;5048339;28;20486;-47
2021/04/13 05:19:31;;;;;;;27.40;17.37;;;2.30;75.60;;;;;;5044661;28;20458;-47
2021/04/13 05:21:57;;;;;;;31.60;17.23;;;2.30;75.60;;;;;;5047480;28;20465;-47
2021/04/13 05:24:23;;;;;;;27.70;17.60;;;2.30;75.70;;;;;;5046646;28;20486;-47
2021/04/13 05:26:50;;;;;;;28.50;17.23;;;2.30;75.60;;;;;;5029407;28;20854;-47
2021/04/13 05:29:16;;;;;;;29.50;16.67;;;2.40;75.60;;;;;;5047292;28;20446;-47
2021/04/13 05:31:43;;;;;;;32.00;17.03;;;2.40;75.60;;;;;;5045034;28;20551;-47
2021/04/13 05:34:10;;;;;;;27.00;17.20;;;2.40;75.60;;;;;;5048840;28;20500;-47
2021/04/13 05:36:38;;;;;;;32.50;16.97;;;2.40;75.60;;;;;;5045926;28;20551;-47
2021/04/13 05:39:06;;;;;;;29.80;16.60;;;2.40;75.70;;;;;;5047661;28;20473;-47
2021/04/13 05:41:33;;;;;;;28.90;18.10;;;2.40;75.70;;;;;;5046221;28;20928;-47
2021/04/13 05:44:03;;;;;;;33.93;19.63;;;2.40;75.80;;;;;;5047662;28;20930;-47
2021/04/13 05:46:32;;;;;;;25.83;17.73;;;2.50;75.90;;;;;;5062497;28;20994;-47
2021/04/13 05:49:00;;;;;;;24.57;15.90;;;2.50;76.00;;;;;;5040795;28;20459;-47
2021/04/13 05:51:27;;;;;;;30.10;18.30;;;2.50;76.10;;;;;;5047876;28;20449;-47
2021/04/13 05:53:54;;;;;;;29.90;17.63;;;2.60;76.10;;;;;;5044665;28;20485;-47
2021/04/13 05:56:29;;;;;;;28.80;19.00;;;2.60;76.20;;;;;;5046014;28;20472;-47
2021/04/13 05:58:56;;;;;;;32.23;20.00;;;2.70;76.40;;;;;;5045397;28;20537;-47
2021/04/13 06:01:28;;;;;;;31.07;18.33;;;2.70;76.30;;;;;;5047030;28;20541;-47
2021/04/13 06:03:55;;;;;;;32.50;18.50;;;2.70;76.40;;;;;;5048668;28;20486;-47
2021/04/13 06:06:21;;;;;;;41.87;20.50;;;2.80;76.40;;;;;;5043852;28;21625;-47
2021/04/13 06:08:49;;;;;;;33.10;19.90;;;2.90;76.40;;;;;;5045394;28;20577;-47
2021/04/13 06:11:24;;;;;;;30.20;19.60;;;3.00;76.70;;;;;;5045813;28;20453;-47
2021/04/13 06:13:53;;;;;;;35.37;19.80;;;3.00;76.40;;;;;;5044212;28;20457;-47
2021/04/13 06:16:21;;;;;;;33.40;18.00;;;3.10;76.40;;;;;;5044613;28;20493;-47
2021/04/13 06:18:47;;;;;;;29.80;18.30;;;3.10;76.70;;;;;;5044250;28;20541;-47
2021/04/13 06:21:14;;;;;;;29.37;17.83;;;3.20;76.70;;;;;;5047546;28;20842;-47
2021/04/13 06:23:40;;;;;;;28.37;18.20;;;3.30;76.80;;;;;;5044865;28;20973;-47
2021/04/13 06:26:07;;;;;;;31.27;20.30;;;3.30;76.90;;;;;;5046000;28;20557;-47
2021/04/13 06:28:33;;;;;;;30.97;19.43;;;3.40;77.00;;;;;;5046800;28;20458;-47
2021/04/13 06:30:59;;;;;;;33.00;19.90;;;3.50;76.80;;;;;;5044385;28;20939;-47
2021/04/13 06:33:28;;;;;;;29.80;18.63;;;3.60;76.40;;;;;;5046539;28;21035;-47
2021/04/13 06:35:56;;;;;;;28.40;17.80;;;3.70;76.50;;;;;;5045082;28;20986;-47
2021/04/13 06:38:27;;;;;;;30.13;17.20;;;3.70;76.20;;;;;;5047879;28;20466;-48
2021/04/13 06:41:38;;;;;;;28.97;18.30;;;3.80;76.10;;;;;;5043551;28;20463;-47
2021/04/13 06:44:14;;;;;;;32.17;17.27;;;3.90;76.00;;;;;;5023708;28;20540;-47
2021/04/13 06:46:52;;;;;;;27.70;16.37;;;4.00;75.60;;;;;;5028738;28;20459;-47
2021/04/13 06:49:28;;;;;;;27.13;16.07;;;4.10;75.10;;;;;;5030674;28;20442;-47
2021/04/13 06:52:18;;;;;;;27.37;16.13;;;4.20;74.60;;;;;;5051112;28;20438;-47
2021/04/13 06:54:57;;;;;;;23.23;14.30;;;4.30;73.90;;;;;;5047185;28;20455;-47
2021/04/13 06:57:58;;;;;;;28.67;17.60;;;4.40;73.90;;;;;;5049579;28;20550;-47
2021/04/13 07:00:40;;;;;;;26.27;16.13;;;4.50;73.60;;;;;;5050296;28;20450;-48
2021/04/13 07:03:21;;;;;;;24.50;15.00;;;4.70;72.80;;;;;;5049624;28;20984;-48
2021/04/13 07:06:25;;;;;;;26.13;15.93;;;4.90;72.10;;;;;;5046350;28;20500;-48
2021/04/13 07:08:57;;;;;;;19.80;13.70;;;5.00;71.70;;;;;;5050023;28;20474;-48
2021/04/13 07:11:31;;;;;;;22.20;14.30;;;5.10;71.10;;;;;;5051433;28;20475;-47
2021/04/13 07:14:21;;;;;;;22.77;15.80;;;5.20;70.20;;;;;;5048262;28;20943;-47
2021/04/13 07:17:05;;;;;;;18.70;12.00;;;5.40;69.30;;;;;;5049958;28;20547;-47
2021/04/13 07:19:36;;;;;;;16.77;12.07;;;5.50;69.10;;;;;;5047248;28;20822;-47
2021/04/13 07:22:22;;;;;;;18.40;10.10;;;5.60;68.10;;;;;;5048817;28;20454;-48
2021/04/13 07:24:54;;;;;;;20.70;12.03;;;5.80;67.10;;;;;;5047856;28;20906;-47
2021/04/13 07:27:30;;;;;;;18.33;12.47;;;5.90;67.30;;;;;;5050326;28;21046;-47
2021/04/13 07:30:09;;;;;;;22.10;10.90;;;6.10;67.00;;;;;;5048723;28;20453;-47
2021/04/13 07:32:36;;;;;;;21.53;10.53;;;6.30;65.80;;;;;;5048510;28;20462;-47
2021/04/13 07:35:09;;;;;;;16.37;9.63;;;6.40;64.60;;;;;;5050771;28;20463;-47
2021/04/13 07:37:38;;;;;;;15.33;9.30;;;6.60;64.60;;;;;;5049495;28;20474;-46
2021/04/13 07:40:19;;;;;;;13.83;9.53;;;6.80;64.50;;;;;;5048894;28;20494;-46
2021/04/13 07:43:00;;;;;;;12.23;7.07;;;7.00;63.50;;;;;;5040775;28;20482;-45
2021/04/13 07:46:05;;;;;;;11.17;7.33;;;7.10;62.00;;;;;;5046198;28;20893;-45
2021/04/13 07:49:06;;;;;;;7.37;5.40;;;7.20;61.70;;;;;;5036658;28;20442;-45
2021/04/13 07:51:57;;;;;;;7.47;5.53;;;7.40;60.80;;;;;;5046991;28;20534;-46
2021/04/13 07:55:19;;;;;;;11.03;4.77;;;7.60;60.00;;;;;;5047764;28;21010;-46
2021/04/13 07:58:19;;;;;;;7.40;4.53;;;7.80;58.50;;;;;;5022407;28;20677;-45
2021/04/13 08:00:51;;;;;;;6.37;4.80;;;7.80;58.20;;;;;;5026514;28;20459;-46
2021/04/13 08:03:24;;;;;;;7.70;4.37;;;7.80;58.10;;;;;;5043277;28;20450;-46
2021/04/13 08:05:56;;;;;;;6.70;4.00;;;7.90;57.80;;;;;;5064958;28;20487;-45
2021/04/13 08:08:35;;;;;;;8.30;5.37;;;7.80;57.10;;;;;;5047216;28;20469;-45
2021/04/13 08:11:09;;;;;;;6.50;4.30;;;7.90;57.80;;;;;;5049180;28;20531;-45
2021/04/13 08:13:36;;;;;;;7.70;4.20;;;8.00;56.90;;;;;;5064163;28;21005;-46
2021/04/13 08:16:03;;;;;;;6.97;4.20;;;8.00;56.80;;;;;;5047006;28;20494;-45
2021/04/13 08:18:39;;;;;;;5.50;3.93;;;7.90;57.10;;;;;;5047177;28;20473;-46
2021/04/13 08:21:35;;;;;;;10.10;5.20;;;8.00;57.00;;;;;;5044843;28;20560;-45
2021/04/13 08:24:03;;;;;;;5.10;4.00;;;8.00;57.10;;;;;;5042918;28;20569;-45
2021/04/13 08:26:40;;;;;;;7.60;5.43;;;8.00;57.10;;;;;;5046375;28;20473;-46
2021/04/13 08:29:40;;;;;;;9.53;6.87;;;8.00;57.30;;;;;;5048137;28;20458;-45
2021/04/13 08:32:58;;;;;;;8.73;6.47;;;8.10;56.90;;;;;;5045618;28;20993;-46
2021/04/13 08:35:39;;;;;;;8.40;5.30;;;8.40;56.20;;;;;;5048514;28;20454;-45
2021/04/13 08:38:16;;;;;;;6.27;4.90;;;8.90;55.80;;;;;;5050425;28;20531;-46
2021/04/13 08:41:01;;;;;;;11.83;6.43;;;9.10;53.60;;;;;;5048421;28;20542;-45
2021/04/13 08:43:49;;;;;;;6.80;5.63;;;9.40;53.70;;;;;;5049034;28;20458;-45
2021/04/13 08:46:26;;;;;;;9.40;6.10;;;9.70;52.60;;;;;;5049766;28;20478;-45
2021/04/13 08:49:10;;;;;;;10.17;5.80;;;10.10;51.70;;;;;;5048188;28;20527;-45
2021/04/13 08:51:45;;;;;;;7.27;5.40;;;10.40;50.60;;;;;;5047322;28;20501;-45
2021/04/13 08:54:19;;;;;;;11.40;5.33;;;10.80;50.60;;;;;;5050185;28;20462;-45
2021/04/13 08:57:11;;;;;;;10.23;6.60;;;11.10;49.80;;;;;;5041554;28;20498;-45
2021/04/13 08:59:55;;;;;;;8.97;5.70;;;11.50;49.00;;;;;;5039190;28;20587;-45
2021/04/13 09:02:37;;;;;;;10.63;5.30;;;11.90;48.40;;;;;;5047027;28;20463;-45
2021/04/13 09:05:11;;;;;;;7.90;5.07;;;12.20;47.20;;;;;;5047152;28;20893;-45
2021/04/13 09:07:50;;;;;;;6.03;5.13;;;12.40;46.40;;;;;;5046353;28;20459;-45
2021/04/13 09:10:43;;;;;;;5.90;4.43;;;12.30;46.70;;;;;;5061514;28;20516;-45
2021/04/13 09:13:21;;;;;;;9.23;5.47;;;12.20;46.20;;;;;;5046887;28;20665;-45
2021/04/13 09:15:59;;;;;;;5.90;5.20;;;12.30;47.10;;;;;;5044414;28;20492;-46
2021/04/13 09:18:30;;;;;;;7.10;5.00;;;12.60;47.30;;;;;;5047791;28;20467;-46
2021/04/13 09:21:06;;;;;;;7.60;5.10;;;12.60;46.30;;;;;;5048542;28;20442;-45
2021/04/13 09:23:54;;;;;;;5.10;4.03;;;12.30;46.70;;;;;;5047595;28;20458;-45
2021/04/13 09:26:57;;;;;;;5.10;3.80;;;12.00;47.60;;;;;;5057963;28;20482;-48
2021/04/13 09:29:35;;;;;;;7.90;4.17;;;12.20;47.70;;;;;;5048225;28;20470;-48
2021/04/13 09:32:25;;;;;;;5.80;3.40;;;12.80;46.10;;;;;;5047820;28;20884;-48
2021/04/13 09:35:00;;;;;;;5.03;3.30;;;13.40;45.30;;;;;;5048399;28;20923;-48
2021/04/13 09:38:03;;;;;;;4.90;3.17;;;13.50;44.00;;;;;;5048165;28;20454;-48
2021/04/13 09:40:45;;;;;;;4.37;3.10;;;12.80;44.30;;;;;;5049105;28;20517;-48
2021/04/13 09:43:26;;;;;;;5.20;3.20;;;12.30;45.40;;;;;;5044230;28;20543;-48
2021/04/13 09:46:07;;;;;;;4.40;3.30;;;12.30;46.40;;;;;;5047916;28;20485;-48
2021/04/13 09:48:54;;;;;;;5.47;3.07;;;12.70;46.50;;;;;;5043866;28;20465;-48
2021/04/13 09:51:51;;;;;;;5.10;2.50;;;12.80;45.90;;;;;;5041202;28;20478;-48
2021/04/13 09:54:43;;;;;;;9.57;2.80;;;12.60;45.80;;;;;;5046992;28;20461;-48
2021/04/13 09:57:36;;;;;;;5.33;3.10;;;12.40;45.40;;;;;;5043076;28;20466;-48
2021/04/13 10:00:09;;;;;;;5.80;3.10;;;12.30;46.10;;;;;;5048344;28;20454;-48
2021/04/13 10:02:54;;;;;;;3.80;2.50;;;12.20;45.90;;;;;;5046502;28;20466;-48
2021/04/13 10:05:48;;;;;;;6.67;2.90;;;12.10;45.10;;;;;;5047764;28;20570;-48
2021/04/13 10:08:14;;;;;;;5.93;2.50;;;11.80;45.20;;;;;;5045864;28;20467;-48
2021/04/13 10:11:09;;;;;;;2.10;1.80;;;11.40;45.50;;;;;;5045792;28;20871;-48
2021/04/13 10:14:28;;;;;;;2.70;1.40;;;11.20;46.90;;;;;;5048446;28;20455;-48
2021/04/13 10:17:15;;;;;;;3.93;1.67;;;11.10;47.50;;;;;;5045809;28;20496;-48
2021/04/13 10:19:42;;;;;;;2.60;1.70;;;11.80;47.40;;;;;;5050682;28;20466;-48
2021/04/13 10:22:41;;;;;;;1.90;1.70;;;12.90;45.30;;;;;;5067238;28;20474;-48
2021/04/13 10:25:32;;;;;;;4.73;2.43;;;13.70;42.70;;;;;;5066914;28;20513;-49
2021/04/13 10:28:28;;;;;;;4.17;3.10;;;14.00;41.90;;;;;;5053319;28;20507;-47
2021/04/13 10:31:27;;;;;;;2.97;2.33;;;13.70;41.80;;;;;;5052192;28;20491;-47
2021/04/13 10:34:14;;;;;;;3.33;2.13;;;13.40;42.80;;;;;;5051892;28;20435;-47
2021/04/13 10:37:03;;;;;;;2.90;2.17;;;13.20;43.10;;;;;;5048117;28;20461;-47
2021/04/13 10:39:41;;;;;;;4.07;2.07;;;13.20;43.20;;;;;;5067083;28;20431;-48
2021/04/13 10:42:26;;;;;;;4.13;2.00;;;13.70;43.00;;;;;;5052018;28;20464;-48
2021/04/13 10:45:16;;;;;;;4.00;2.43;;;14.40;41.90;;;;;;5064374;28;20493;-48
2021/04/13 10:48:21;;;;;;;2.60;2.23;;;15.10;40.50;;;;;;5049888;28;20458;-49
2021/04/13 10:51:16;;;;;;;3.03;2.43;;;15.20;39.10;;;;;;5026751;28;20525;-48
2021/04/13 10:54:07;;;;;;;3.47;2.40;;;14.90;39.60;;;;;;5048534;28;21045;-48
2021/04/13 10:56:58;;;;;;;4.30;2.97;;;14.50;40.60;;;;;;5049042;28;20461;-48
2021/04/13 10:59:55;;;;;;;4.30;2.10;;;14.10;40.40;;;;;;5048488;28;20469;-47
2021/04/13 11:02:36;;;;;;;4.60;3.60;;;13.60;40.90;;;;;;5049135;28;20458;-48
2021/04/13 11:05:38;;;;;;;4.03;3.40;;;13.30;43.00;;;;;;5066828;28;20497;-47
2021/04/13 11:08:20;;;;;;;5.10;3.10;;;13.00;44.20;;;;;;5048025;28;20545;-47
2021/04/13 11:11:20;;;;;;;3.87;3.47;;;12.50;44.90;;;;;;5049812;28;20486;-47
2021/04/13 11:14:23;;;;;;;5.43;3.23;;;12.10;45.70;;;;;;5051445;28;20454;-47
2021/04/13 11:17:07;;;;;;;7.03;3.13;;;11.80;45.90;;;;;;5047110;28;20593;-47
2021/04/13 11:19:52;;;;;;;4.30;3.20;;;11.60;46.40;;;;;;5048628;28;20435;-47
2021/04/13 11:23:03;;;;;;;5.03;3.00;;;11.40;46.40;;;;;;5048301;28;20563;-47
2021/04/13 11:26:03;;;;;;;5.23;3.00;;;11.40;45.80;;;;;;5059028;28;20490;-47
2021/04/13 11:28:59;;;;;;;4.00;2.87;;;11.40;46.20;;;;;;5048999;28;20447;-47
2021/04/13 11:31:37;;;;;;;4.93;3.20;;;11.30;45.90;;;;;;5044660;28;20551;-47
2021/04/13 11:34:42;;;;;;;3.70;2.37;;;11.20;46.10;;;;;;5064050;28;20537;-47
2021/04/13 11:37:21;;;;;;;3.77;2.53;;;11.10;46.60;;;;;;5051287;28;20969;-47
2021/04/13 11:40:26;;;;;;;8.37;3.17;;;11.40;46.80;;;;;;5048318;28;20458;-49
2021/04/13 11:42:56;;;;;;;4.00;2.80;;;11.60;45.00;;;;;;5047333;28;20892;-47
2021/04/13 11:45:34;;;;;;;7.13;2.77;;;11.70;44.30;;;;;;5044905;28;20561;-47
2021/04/13 11:48:21;;;;;;;4.20;2.40;;;11.70;45.20;;;;;;5046918;28;22056;-47
2021/04/13 11:51:30;;;;;;;3.90;2.17;;;11.50;46.60;;;;;;5046415;28;20556;-47
2021/04/13 11:54:18;;;;;;;5.73;2.60;;;11.40;47.90;;;;;;5043033;28;20459;-49
2021/04/13 11:57:00;;;;;;;7.10;3.10;;;11.10;48.40;;;;;;5052349;28;20472;-48
2021/04/13 11:59:27;;;;;;;3.20;2.77;;;10.90;48.90;;;;;;5044667;28;20546;-48
2021/04/13 12:01:58;;;;;;;2.60;2.17;;;10.80;49.30;;;;;;5050232;28;20537;-48
2021/04/13 12:04:41;;;;;;;4.43;2.30;;;10.70;49.90;;;;;;5049498;28;20477;-48
2021/04/13 12:07:09;;;;;;;2.90;1.93;;;10.70;49.60;;;;;;5049233;28;20830;-48
2021/04/13 12:09:57;;;;;;;3.73;2.50;;;10.50;49.10;;;;;;5050321;28;20806;-48
2021/04/13 12:12:30;;;;;;;2.87;2.27;;;10.50;49.10;;;;;;5050537;28;20451;-47
2021/04/13 12:15:16;;;;;;;3.33;2.00;;;10.50;48.60;;;;;;5048746;28;20461;-48
2021/04/13 12:17:49;;;;;;;2.60;1.77;;;10.50;48.20;;;;;;5046241;28;20544;-48
2021/04/13 12:20:25;;;;;;;3.07;1.77;;;10.70;48.50;;;;;;5049336;28;20447;-48
2021/04/13 12:22:53;;;;;;;3.97;1.60;;;10.90;48.00;;;;;;5052103;28;20494;-48
2021/04/13 12:25:52;;;;;;;8.93;1.70;;;11.30;48.00;;;;;;5051753;28;20565;-48
2021/04/13 12:28:38;;;;;;;3.20;1.80;;;11.80;47.10;;;;;;5047000;28;20940;-48
2021/04/13 12:31:04;;;;;;;3.83;2.20;;;12.10;46.40;;;;;;5050429;28;21018;-48
2021/04/13 12:33:31;;;;;;;3.43;1.63;;;12.10;46.00;;;;;;5064919;28;20446;-48
2021/04/13 12:36:21;;;;;;;2.50;1.70;;;12.00;46.60;;;;;;5048547;28;20450;-48
2021/04/13 12:38:51;;;;;;;2.83;1.50;;;11.90;46.90;;;;;;5049246;28;20954;-48
2021/04/13 12:41:29;;;;;;;3.73;1.90;;;11.60;46.80;;;;;;5040668;28;20951;-48
2021/04/13 12:43:59;;;;;;;2.27;1.70;;;11.40;46.50;;;;;;5049960;28;20453;-48
2021/04/13 12:46:32;;;;;;;4.53;2.20;;;11.20;46.90;;;;;;5044239;28;20493;-48
2021/04/13 12:49:04;;;;;;;3.40;2.97;;;11.00;47.50;;;;;;5048349;28;20973;-48
2021/04/13 12:51:31;;;;;;;5.10;1.93;;;10.90;47.80;;;;;;5048559;28;20541;-48
2021/04/13 12:54:28;;;;;;;3.20;2.10;;;10.80;47.40;;;;;;5061285;28;20457;-48
2021/04/13 12:57:23;;;;;;;3.03;1.67;;;10.70;47.50;;;;;;5046831;28;20466;-48
2021/04/13 13:00:05;;;;;;;2.33;2.13;;;10.70;46.80;;;;;;5049014;28;20465;-48
2021/04/13 13:02:49;;;;;;;1.70;1.60;;;10.70;46.40;;;;;;5043168;28;20508;-48
2021/04/13 13:05:21;;;;;;;3.40;1.50;;;10.80;46.40;;;;;;5046298;28;20512;-48
2021/04/13 13:08:10;;;;;;;2.93;1.50;;;10.80;46.40;;;;;;5044925;28;20955;-48
2021/04/13 13:10:40;;;;;;;3.13;1.80;;;10.80;46.00;;;;;;5048474;28;20632;-48
2021/04/13 13:13:10;;;;;;;1.80;1.50;;;11.00;47.30;;;;;;5050201;28;20447;-48
2021/04/13 13:15:39;;;;;;;3.30;1.57;;;11.30;46.10;;;;;;5047770;28;20493;-48
2021/04/13 13:18:23;;;;;;;3.80;1.60;;;11.60;44.30;;;;;;5044936;28;20465;-48
2021/04/13 13:21:08;;;;;;;2.33;2.00;;;11.80;44.10;;;;;;5047611;28;20541;-47
2021/04/13 13:23:38;;;;;;;2.07;1.70;;;12.00;43.80;;;;;;5043773;28;20908;-47
2021/04/13 13:26:17;;;;;;;1.90;1.70;;;12.10;44.20;;;;;;5027551;28;20493;-47
2021/04/13 13:28:44;;;;;;;4.00;1.60;;;12.10;44.30;;;;;;5050033;28;20468;-47
2021/04/13 13:31:25;;;;;;;3.00;1.63;;;12.10;44.00;;;;;;5045799;28;21124;-48
2021/04/13 13:34:20;;;;;;;5.60;1.97;;;12.00;43.80;;;;;;5065115;28;20459;-48
2021/04/13 13:36:48;;;;;;;1.53;1.33;;;12.00;44.30;;;;;;5049060;28;20445;-48
2021/04/13 13:39:34;;;;;;;2.60;1.30;;;11.90;44.10;;;;;;5042903;28;20957;-48
2021/04/13 13:42:06;;;;;;;4.40;1.97;;;11.80;43.70;;;;;;5046483;28;20462;-48
2021/04/13 13:44:49;;;;;;;2.53;1.40;;;11.70;43.00;;;;;;5061704;28;20486;-48
2021/04/13 13:47:23;;;;;;;2.20;1.30;;;11.50;43.00;;;;;;5048373;28;20497;-47
2021/04/13 13:49:54;;;;;;;5.00;1.43;;;11.50;43.50;;;;;;5046044;28;20460;-48
2021/04/13 13:52:38;;;;;;;1.60;0.73;;;11.50;44.50;;;;;;5045660;28;20466;-48